Terminal Aerodrome Forecast
Issued by NWS Greer, SC

Home | Current Version | Previous Version | Text Only | Print | Product List | Glossary On
Versions: 1 2 3 4 5 6 7 8 9 10 11 12 13 14 15 16 17 18 19 20 21 22 23
000
FTUS42 KGSP 040537
TAFGSP
TAF
KGSP 040537Z 0406/0506 24009KT P6SM FEW070 BKN120
     FM041200 23010G18KT P6SM -SHRA VCTS OVC035CB
     FM041600 23015G25KT P6SM -SHRA BKN040 PROB30 0416/0422 4SM TSRA
      BKN030CB
     FM042200 24014G24KT P6SM VCTS BKN060CB
     FM050000 25009KT P6SM BKN220=

USA.gov is the U.S. government's official web portal to all federal, state and local government web resources and services.